createdAt,value
2022-10-31T00:01:36.557Z,22.33
2022-10-31T00:04:23.464Z,23.23
2022-10-31T00:07:10.537Z,23.40
2022-10-31T00:09:57.527Z,23.23
2022-10-31T00:12:44.521Z,23.80
2022-10-31T00:15:31.484Z,23.83
2022-10-31T00:18:18.494Z,26.47
2022-10-31T00:21:05.608Z,25.47
2022-10-31T00:23:53.033Z,25.53
2022-10-31T00:26:40.018Z,25.40
2022-10-31T00:29:27.069Z,24.10
2022-10-31T00:32:14.058Z,25.97
2022-10-31T00:35:01.002Z,25.57
2022-10-31T00:37:48.013Z,24.63
2022-10-31T00:40:35.015Z,24.37
2022-10-31T00:43:22.350Z,26.97
2022-10-31T00:46:09.693Z,26.53
2022-10-31T00:48:56.692Z,26.77
2022-10-31T00:51:43.685Z,23.77
2022-10-31T00:54:31.971Z,27.27
2022-10-31T00:57:18.932Z,27.37
2022-10-31T01:00:06.322Z,27.37
2022-10-31T01:02:53.307Z,25.00
2022-10-31T01:05:40.292Z,28.83
2022-10-31T01:08:27.885Z,28.20
2022-10-31T01:11:23.136Z,26.87
2022-10-31T01:14:10.678Z,31.40
2022-10-31T01:16:57.671Z,29.40
2022-10-31T01:19:45.793Z,27.57
2022-10-31T01:22:33.033Z,30.03
2022-10-31T01:25:19.970Z,33.60
2022-10-31T01:28:06.914Z,31.53
2022-10-31T01:30:53.905Z,30.90
2022-10-31T01:33:40.953Z,32.77
2022-10-31T01:36:33.450Z,32.20
2022-10-31T01:39:20.715Z,35.10
2022-10-31T01:42:07.696Z,32.20
2022-10-31T01:45:01.294Z,30.17
2022-10-31T01:47:50.451Z,31.50
2022-10-31T01:50:40.063Z,26.13
2022-10-31T01:53:27.234Z,25.73
2022-10-31T01:56:17.155Z,27.50
2022-10-31T01:59:08.532Z,26.93
2022-10-31T02:01:55.629Z,33.07
2022-10-31T02:04:43.801Z,32.03
2022-10-31T02:07:53.060Z,36.13
2022-10-31T02:10:41.393Z,37.90
2022-10-31T02:13:30.289Z,36.53
2022-10-31T02:16:17.266Z,36.47
2022-10-31T02:19:09.989Z,34.47
2022-10-31T02:22:18.601Z,36.00
2022-10-31T02:25:23.773Z,39.73
2022-10-31T02:28:30.979Z,39.90
2022-10-31T02:31:17.937Z,41.57
2022-10-31T02:34:34.438Z,36.77
2022-10-31T02:37:42.038Z,34.23
2022-10-31T02:40:40.764Z,34.00
2022-10-31T02:43:47.803Z,34.30
2022-10-31T02:46:39.466Z,37.73
2022-10-31T02:49:43.609Z,38.07
2022-10-31T02:52:32.965Z,37.67
2022-10-31T02:55:25.968Z,37.40
2022-10-31T03:01:15.681Z,36.30
2022-10-31T03:04:31.821Z,38.53
2022-10-31T03:07:24.820Z,39.27
2022-10-31T03:10:26.896Z,38.87
2022-10-31T03:13:29.010Z,38.03
2022-10-31T03:16:18.832Z,37.47
2022-10-31T03:19:42.841Z,35.90
2022-10-31T03:22:32.897Z,37.40
2022-10-31T03:25:19.986Z,39.63
2022-10-31T03:28:08.412Z,41.33
2022-10-31T03:30:57.858Z,42.53
2022-10-31T03:33:46.927Z,41.23
2022-10-31T03:36:36.349Z,41.53
2022-10-31T03:39:24.634Z,41.93
2022-10-31T03:42:17.541Z,42.47
2022-10-31T03:45:11.568Z,39.93
2022-10-31T03:48:02.111Z,39.80
2022-10-31T03:51:11.618Z,39.67
2022-10-31T03:54:05.300Z,45.93
2022-10-31T03:56:57.225Z,48.13
2022-10-31T03:59:48.695Z,51.77
2022-10-31T04:02:42.400Z,40.47
2022-10-31T04:05:31.692Z,43.17
2022-10-31T04:08:22.792Z,40.43
2022-10-31T04:11:13.213Z,40.23
2022-10-31T04:14:03.084Z,37.20
2022-10-31T04:16:50.154Z,37.00
2022-10-31T04:19:37.158Z,46.13
2022-10-31T04:22:24.184Z,47.87
2022-10-31T04:25:11.247Z,41.13
2022-10-31T04:27:58.653Z,43.80
2022-10-31T04:30:45.934Z,37.93
2022-10-31T04:33:32.940Z,42.03
2022-10-31T04:36:19.949Z,38.07
2022-10-31T04:39:06.943Z,37.63
2022-10-31T04:41:53.948Z,37.43
2022-10-31T04:44:40.873Z,36.60
2022-10-31T04:47:27.814Z,40.20
2022-10-31T04:50:14.869Z,38.67
2022-10-31T04:53:01.856Z,37.50
2022-10-31T04:55:48.831Z,34.10
2022-10-31T04:58:36.081Z,36.97
2022-10-31T05:01:23.112Z,39.43
2022-10-31T05:04:10.217Z,38.03
2022-10-31T05:06:57.194Z,34.20
2022-10-31T05:09:44.143Z,34.30
2022-10-31T05:12:31.091Z,35.73
2022-10-31T05:15:19.404Z,34.50
2022-10-31T05:18:06.444Z,37.63
2022-10-31T05:20:53.476Z,37.33
2022-10-31T05:23:44.289Z,34.40
2022-10-31T05:26:34.456Z,36.50
2022-10-31T05:29:21.357Z,36.53
2022-10-31T05:32:08.307Z,39.63
2022-10-31T05:34:55.229Z,39.03
2022-10-31T05:37:42.269Z,37.03
2022-10-31T05:40:29.549Z,36.97
2022-10-31T05:43:16.528Z,30.20
2022-10-31T05:46:03.534Z,28.90
2022-10-31T05:48:50.533Z,27.67
2022-10-31T05:51:37.525Z,35.83
2022-10-31T05:54:24.594Z,33.07
2022-10-31T05:57:11.583Z,32.20
2022-10-31T05:59:58.523Z,32.77
2022-10-31T06:02:45.519Z,34.27
2022-10-31T06:05:32.792Z,33.17
2022-10-31T06:08:19.929Z,33.47
2022-10-31T06:11:06.895Z,38.07
2022-10-31T06:13:53.852Z,39.83
2022-10-31T06:16:40.904Z,41.37
2022-10-31T06:19:27.900Z,35.83
2022-10-31T06:22:15.003Z,34.60
2022-10-31T06:25:02.108Z,35.33
2022-10-31T06:27:49.091Z,35.10
2022-10-31T06:30:36.100Z,34.80
2022-10-31T06:33:23.123Z,32.87
2022-10-31T06:36:10.999Z,35.63
2022-10-31T06:38:57.907Z,36.77
2022-10-31T06:41:44.863Z,36.53
2022-10-31T06:44:32.476Z,32.23
2022-10-31T06:47:19.488Z,33.63
2022-10-31T06:50:07.014Z,34.87
2022-10-31T06:52:55.568Z,31.50
2022-10-31T06:55:43.446Z,29.70
2022-10-31T06:58:30.438Z,37.80
2022-10-31T07:01:17.496Z,32.10
2022-10-31T07:04:04.911Z,31.63
2022-10-31T07:06:53.720Z,33.83
2022-10-31T07:09:40.785Z,35.33
2022-10-31T07:12:27.752Z,33.13
2022-10-31T07:15:14.966Z,33.37
2022-10-31T07:18:03.348Z,34.10
2022-10-31T07:20:50.319Z,34.57
2022-10-31T07:23:37.387Z,34.07
2022-10-31T07:26:24.386Z,31.93
2022-10-31T07:29:11.367Z,31.60
2022-10-31T07:31:58.417Z,32.73
2022-10-31T07:34:47.487Z,30.07
2022-10-31T07:37:34.887Z,28.67
2022-10-31T07:40:23.277Z,28.90
2022-10-31T07:43:14.666Z,31.93
2022-10-31T07:46:01.924Z,31.37
2022-10-31T07:48:49.266Z,30.47
2022-10-31T07:51:36.686Z,28.47
2022-10-31T07:54:24.059Z,32.87
2022-10-31T07:57:11.096Z,31.27
2022-10-31T07:59:58.359Z,30.10
2022-10-31T08:02:45.621Z,29.50
2022-10-31T08:05:33.585Z,29.83
2022-10-31T08:08:20.756Z,33.10
2022-10-31T08:11:07.844Z,32.97
2022-10-31T08:13:54.775Z,35.97
2022-10-31T08:16:41.779Z,35.37
2022-10-31T08:19:28.844Z,34.27
2022-10-31T08:22:15.830Z,35.77
2022-10-31T08:25:03.140Z,32.57
2022-10-31T08:27:54.644Z,33.50
2022-10-31T08:30:42.533Z,32.37
2022-10-31T08:33:29.621Z,32.33
2022-10-31T08:36:16.596Z,28.87
2022-10-31T08:39:04.092Z,29.93
2022-10-31T08:41:51.612Z,30.17
2022-10-31T08:44:39.359Z,30.73
2022-10-31T08:47:27.074Z,32.00
2022-10-31T08:50:14.310Z,28.40
2022-10-31T08:53:06.658Z,31.17
2022-10-31T08:55:56.685Z,28.30
2022-10-31T08:58:43.699Z,28.13
2022-10-31T09:01:30.764Z,30.17
2022-10-31T09:04:17.850Z,30.00
2022-10-31T09:07:21.290Z,30.43
2022-10-31T09:10:08.905Z,27.50
2022-10-31T09:13:09.905Z,28.07
2022-10-31T09:15:59.252Z,29.63
2022-10-31T09:18:46.448Z,25.87
2022-10-31T09:21:33.541Z,24.47
2022-10-31T09:24:20.786Z,28.33
2022-10-31T09:27:09.568Z,27.83
2022-10-31T09:29:56.752Z,24.67
2022-10-31T09:32:43.784Z,26.60
2022-10-31T09:35:30.813Z,27.07
2022-10-31T09:38:20.359Z,26.23
2022-10-31T09:41:15.311Z,26.10
2022-10-31T09:44:18.588Z,25.93
2022-10-31T09:47:28.580Z,26.13
2022-10-31T09:50:20.050Z,25.30
2022-10-31T09:53:14.985Z,24.87
2022-10-31T09:56:05.914Z,25.33
2022-10-31T09:58:56.695Z,24.00
2022-10-31T10:01:56.225Z,25.27
2022-10-31T10:04:58.243Z,24.97
2022-10-31T10:08:22.426Z,24.70
2022-10-31T10:11:21.503Z,22.73
2022-10-31T10:14:42.709Z,22.37
2022-10-31T10:17:55.263Z,20.97
2022-10-31T10:21:08.953Z,19.73
2022-10-31T10:24:22.022Z,22.10
2022-10-31T10:27:38.276Z,20.37
2022-10-31T10:30:36.895Z,20.00
2022-10-31T10:33:33.431Z,20.20
2022-10-31T10:36:43.631Z,20.97
2022-10-31T10:39:33.295Z,20.27
2022-10-31T10:42:40.313Z,20.47
2022-10-31T10:45:45.999Z,19.60
2022-10-31T10:48:46.733Z,18.80
2022-10-31T10:51:57.775Z,18.77
2022-10-31T10:55:00.216Z,18.87
2022-10-31T10:57:58.468Z,18.57
2022-10-31T11:00:48.089Z,16.77
2022-10-31T11:03:36.694Z,16.37
2022-10-31T11:06:28.569Z,16.37
2022-10-31T11:09:17.830Z,15.73
2022-10-31T11:12:18.904Z,15.40
2022-10-31T11:15:23.418Z,16.13
2022-10-31T11:21:34.406Z,14.63
2022-10-31T11:24:24.345Z,15.10
2022-10-31T11:27:15.692Z,14.23
2022-10-31T11:30:07.515Z,14.73
2022-10-31T11:32:54.986Z,14.37
2022-10-31T11:35:42.089Z,14.00
2022-10-31T11:38:41.973Z,15.53
2022-10-31T11:41:30.924Z,13.77
2022-10-31T11:44:25.007Z,13.63
2022-10-31T11:47:17.739Z,15.17
2022-10-31T11:50:12.696Z,13.90
2022-10-31T11:52:59.858Z,12.80
2022-10-31T11:55:47.908Z,12.50
2022-10-31T11:58:34.916Z,12.70
2022-10-31T12:01:28.363Z,13.50
2022-10-31T12:04:16.773Z,12.47
2022-10-31T12:07:04.198Z,12.83
2022-10-31T12:09:51.209Z,12.03
2022-10-31T12:12:45.078Z,11.57
2022-10-31T12:15:35.498Z,11.80
2022-10-31T12:18:55.351Z,10.83
2022-10-31T12:22:14.459Z,11.83
2022-10-31T12:25:18.119Z,12.27
2022-10-31T12:28:29.488Z,11.00
2022-10-31T12:31:35.513Z,10.93
2022-10-31T12:34:46.164Z,10.57
2022-10-31T12:37:54.598Z,10.73
2022-10-31T12:40:51.279Z,11.03
2022-10-31T12:43:48.860Z,10.30
2022-10-31T12:47:17.488Z,11.13
2022-10-31T12:50:36.514Z,11.43
2022-10-31T12:53:49.311Z,11.23
2022-10-31T12:56:51.376Z,11.57
2022-10-31T12:59:41.155Z,11.60
2022-10-31T13:02:42.849Z,10.77
2022-10-31T13:05:44.113Z,11.13
2022-10-31T13:08:41.721Z,11.20
2022-10-31T13:11:35.124Z,11.20
2022-10-31T13:14:31.283Z,10.23
2022-10-31T13:17:39.779Z,10.33
2022-10-31T13:20:33.186Z,9.00
2022-10-31T13:23:49.846Z,10.00
2022-10-31T13:26:59.668Z,11.17
2022-10-31T13:30:04.224Z,8.73
2022-10-31T13:33:02.922Z,9.50
2022-10-31T13:35:56.625Z,10.33
2022-10-31T13:38:52.949Z,9.40
2022-10-31T13:42:04.400Z,9.90
2022-10-31T13:44:51.501Z,10.80
2022-10-31T13:47:38.573Z,10.60
2022-10-31T13:50:31.027Z,10.97
2022-10-31T13:53:17.932Z,10.30
2022-10-31T13:56:15.512Z,11.10
2022-10-31T13:59:12.306Z,10.53
2022-10-31T14:02:01.926Z,10.03
2022-10-31T14:04:55.628Z,10.23
2022-10-31T14:07:46.470Z,11.10
2022-10-31T14:10:40.079Z,9.67
2022-10-31T14:13:43.162Z,10.30
2022-10-31T14:16:32.593Z,10.13
2022-10-31T14:19:23.307Z,10.17
2022-10-31T14:22:22.801Z,10.90
2022-10-31T14:25:36.262Z,9.77
2022-10-31T14:28:33.429Z,10.67
2022-10-31T14:31:39.253Z,10.40
2022-10-31T14:34:37.507Z,11.43
2022-10-31T14:37:44.869Z,11.67
2022-10-31T14:44:11.633Z,12.20
2022-10-31T14:47:12.748Z,12.27
2022-10-31T14:50:15.500Z,11.53
2022-10-31T14:53:05.712Z,12.03
2022-10-31T14:56:01.371Z,11.80
2022-10-31T14:58:51.740Z,12.83
2022-10-31T15:01:43.729Z,11.47
2022-10-31T15:04:33.648Z,11.93
2022-10-31T15:07:25.101Z,13.47
2022-10-31T15:10:46.076Z,12.67
2022-10-31T15:13:33.114Z,13.17
2022-10-31T15:19:25.734Z,13.47
2022-10-31T15:22:17.220Z,12.07
2022-10-31T15:25:12.819Z,12.83
2022-10-31T15:28:00.095Z,13.67
2022-10-31T15:30:56.001Z,14.07
2022-10-31T15:33:48.484Z,14.73
2022-10-31T15:36:38.406Z,16.00
2022-10-31T15:39:26.012Z,15.20
2022-10-31T15:42:21.143Z,13.90
2022-10-31T15:45:14.189Z,15.13
2022-10-31T15:48:17.806Z,15.80
2022-10-31T15:51:06.060Z,15.57
2022-10-31T15:53:55.806Z,15.73
2022-10-31T15:56:44.729Z,14.87
2022-10-31T15:59:32.422Z,15.43
2022-10-31T16:02:24.968Z,15.60
2022-10-31T16:05:20.669Z,13.93
2022-10-31T16:08:29.620Z,14.73
2022-10-31T16:11:45.928Z,15.53
2022-10-31T16:14:40.123Z,16.30
2022-10-31T16:17:28.616Z,16.03
2022-10-31T16:20:38.776Z,16.07
2022-10-31T16:23:27.440Z,17.37
2022-10-31T16:26:20.023Z,17.60
2022-10-31T16:29:33.603Z,17.50
2022-10-31T16:32:54.549Z,16.10
2022-10-31T16:35:41.440Z,16.50
2022-10-31T16:38:28.731Z,16.30
2022-10-31T16:41:15.690Z,16.67
2022-10-31T16:44:05.322Z,16.33
2022-10-31T16:47:07.284Z,15.73
2022-10-31T16:49:54.353Z,15.60
2022-10-31T16:52:53.879Z,14.40
2022-10-31T16:55:56.048Z,15.70
2022-10-31T16:58:44.099Z,13.73
2022-10-31T17:01:31.723Z,16.47
2022-10-31T17:04:18.837Z,14.77
2022-10-31T17:07:05.824Z,15.67
2022-10-31T17:09:52.865Z,14.27
2022-10-31T17:12:43.704Z,16.67
2022-10-31T17:15:39.992Z,15.20
2022-10-31T17:18:27.992Z,15.80
2022-10-31T17:21:23.699Z,14.90
2022-10-31T17:24:14.328Z,15.87
2022-10-31T17:27:01.338Z,15.83
2022-10-31T17:29:48.291Z,16.73
2022-10-31T17:32:35.265Z,16.27
2022-10-31T17:35:22.495Z,17.83
2022-10-31T17:38:09.686Z,16.93
2022-10-31T17:40:56.667Z,17.03
2022-10-31T17:43:43.658Z,16.37
2022-10-31T17:46:30.580Z,17.97
2022-10-31T17:49:17.500Z,18.33
2022-10-31T17:52:04.753Z,19.00
2022-10-31T17:54:51.775Z,17.27
2022-10-31T17:57:39.368Z,16.17
2022-10-31T18:00:26.959Z,15.13
2022-10-31T18:03:13.917Z,17.70
2022-10-31T18:06:00.943Z,16.77
2022-10-31T18:08:47.882Z,17.40
2022-10-31T18:11:34.812Z,16.97
2022-10-31T18:14:21.876Z,17.20
2022-10-31T18:17:09.009Z,17.90
2022-10-31T18:19:56.099Z,18.90
2022-10-31T18:22:43.103Z,17.77
2022-10-31T18:25:30.063Z,18.63
2022-10-31T18:28:17.010Z,17.97
2022-10-31T18:31:04.172Z,17.30
2022-10-31T18:33:55.701Z,16.67
2022-10-31T18:36:42.788Z,17.60
2022-10-31T18:39:29.781Z,17.97
2022-10-31T18:42:16.700Z,16.63
2022-10-31T18:45:17.099Z,17.83
2022-10-31T18:48:13.233Z,15.97
2022-10-31T18:51:07.297Z,17.97
2022-10-31T18:53:56.390Z,17.07
2022-10-31T18:56:43.512Z,16.73
2022-10-31T18:59:30.588Z,16.60
2022-10-31T19:02:18.039Z,17.23
2022-10-31T19:05:05.373Z,15.53
2022-10-31T19:07:52.328Z,16.40
2022-10-31T19:10:40.827Z,15.00
2022-10-31T19:13:27.862Z,15.50
2022-10-31T19:16:16.804Z,15.30
2022-10-31T19:19:03.831Z,15.97
2022-10-31T19:21:51.311Z,16.20
2022-10-31T19:24:38.287Z,14.83
2022-10-31T19:27:28.178Z,16.00
2022-10-31T19:30:15.288Z,14.90
2022-10-31T19:33:02.180Z,15.67
2022-10-31T19:35:49.185Z,15.87
2022-10-31T19:38:38.006Z,15.43
2022-10-31T19:41:27.376Z,16.37
2022-10-31T19:44:16.036Z,16.07
2022-10-31T19:47:03.648Z,18.70
2022-10-31T19:49:50.818Z,17.87
2022-10-31T19:52:38.159Z,19.27
2022-10-31T19:55:25.071Z,18.50
2022-10-31T19:58:12.164Z,18.47
2022-10-31T20:03:46.924Z,20.90
2022-10-31T20:06:37.135Z,19.17
2022-10-31T20:09:24.588Z,21.60
2022-10-31T20:12:11.717Z,19.90
2022-10-31T20:14:58.700Z,22.03
2022-10-31T20:17:45.961Z,18.90
2022-10-31T20:20:33.659Z,22.53
2022-10-31T20:23:20.969Z,23.00
2022-10-31T20:26:14.130Z,22.87
2022-10-31T20:29:02.609Z,20.00
2022-10-31T20:31:49.710Z,21.97
2022-10-31T20:34:36.733Z,19.80
2022-10-31T20:37:23.709Z,22.07
2022-10-31T20:40:11.265Z,21.47
2022-10-31T20:42:58.892Z,21.60
2022-10-31T20:45:45.908Z,21.43
2022-10-31T20:48:33.043Z,19.67
2022-10-31T20:51:28.152Z,19.87
2022-10-31T20:54:15.591Z,19.77
2022-10-31T20:57:02.536Z,19.83
2022-10-31T20:59:50.130Z,18.50
2022-10-31T21:02:41.682Z,20.67
2022-10-31T21:05:29.077Z,20.07
2022-10-31T21:08:15.998Z,20.57
2022-10-31T21:11:11.357Z,21.80
2022-10-31T21:13:59.535Z,19.00
2022-10-31T21:16:46.973Z,20.20
2022-10-31T21:19:36.295Z,22.43
2022-10-31T21:22:23.624Z,21.30
2022-10-31T21:25:10.655Z,23.80
2022-10-31T21:27:57.740Z,21.77
2022-10-31T21:30:47.355Z,21.37
2022-10-31T21:33:34.856Z,22.43
2022-10-31T21:36:21.872Z,23.17
2022-10-31T21:39:09.713Z,23.23
2022-10-31T21:41:56.796Z,23.30
2022-10-31T21:44:43.753Z,23.70
2022-10-31T21:47:31.207Z,24.63
2022-10-31T21:50:18.324Z,24.13
2022-10-31T21:53:25.176Z,23.40
2022-10-31T21:56:12.162Z,23.03
2022-10-31T21:58:59.237Z,25.50
2022-10-31T22:01:46.326Z,27.67
2022-10-31T22:04:33.642Z,27.90
2022-10-31T22:07:20.692Z,29.37
2022-10-31T22:10:08.066Z,27.93
2022-10-31T22:12:55.025Z,29.53
2022-10-31T22:15:42.061Z,30.67
2022-10-31T22:18:29.312Z,30.30
2022-10-31T22:21:19.265Z,29.47
2022-10-31T22:24:07.784Z,27.57
2022-10-31T22:26:54.989Z,28.87
2022-10-31T22:29:42.011Z,31.03
2022-10-31T22:32:28.966Z,32.27
2022-10-31T22:35:16.077Z,28.90
2022-10-31T22:38:03.095Z,30.20
2022-10-31T22:40:50.047Z,31.80
2022-10-31T22:43:37.628Z,30.87
2022-10-31T22:46:31.104Z,34.90
2022-10-31T22:49:18.054Z,35.50
2022-10-31T22:52:05.637Z,34.73
2022-10-31T22:54:55.528Z,35.00
2022-10-31T22:57:45.404Z,34.57
2022-10-31T23:00:32.322Z,32.97
2022-10-31T23:03:19.306Z,32.83
2022-10-31T23:06:07.805Z,33.03
2022-10-31T23:08:54.898Z,32.07
2022-10-31T23:11:42.255Z,32.07
2022-10-31T23:14:29.587Z,33.50
2022-10-31T23:17:19.335Z,34.70
2022-10-31T23:20:07.177Z,33.50
2022-10-31T23:22:54.138Z,33.23
2022-10-31T23:26:02.772Z,32.93
2022-10-31T23:28:49.703Z,33.03
2022-10-31T23:31:36.670Z,31.63
2022-10-31T23:34:23.666Z,33.07
2022-10-31T23:37:11.278Z,32.90
2022-10-31T23:39:58.780Z,34.53
2022-10-31T23:42:45.770Z,35.77
2022-10-31T23:45:33.158Z,38.93
2022-10-31T23:48:20.088Z,35.30
2022-10-31T23:51:07.000Z,40.13
2022-10-31T23:53:53.984Z,37.17
2022-10-31T23:56:40.944Z,37.23
2022-10-31T23:59:29.231Z,37.43
